Strait Of Dover, United Kingdom
Current Conditions -  °F | °C
As of 1:20 PM on Sunday 23 Nov 2014 (Local Time) from EGMD Reporting Station
Light Rain Light Rain  
Wind Chill: 50°   Ceiling: 1000
Heat Index: 50°   Visibility: 5mi
Dew Point: 48°   Wind: 17mph
Humidity: 94%   Direction: 350°N
Pressure: 29.97"   Gusts: NA
Location:  51°N, 1.42°E
Report Text: EGMD 231320Z 35015KT 8000 -RA BKN010 10/09 Q1015
Loading
Personal Weather Stations






























Interactive Weather Map New forecast layout! Learn more

10-Day Weather Forecast

Advertisements
Track Severe Weather on mobile